createdAt,value
2019-03-19T00:01:11.833Z,3.15
2019-03-19T00:03:39.839Z,3.57
2019-03-19T00:06:07.664Z,3.57
2019-03-19T00:08:35.818Z,4.10
2019-03-19T00:11:04.929Z,3.60
2019-03-19T00:13:33.101Z,3.83
2019-03-19T00:16:01.186Z,3.90
2019-03-19T00:18:29.505Z,4.43
2019-03-19T00:20:57.307Z,4.37
2019-03-19T00:23:25.662Z,3.93
2019-03-19T00:25:54.280Z,3.87
2019-03-19T00:28:22.878Z,3.43
2019-03-19T00:30:50.935Z,3.60
2019-03-19T00:33:18.942Z,3.70
2019-03-19T00:35:47.205Z,3.72
2019-03-19T00:38:15.307Z,3.35
2019-03-19T00:40:43.372Z,3.20
2019-03-19T00:43:11.816Z,3.10
2019-03-19T00:45:40.129Z,2.95
2019-03-19T00:48:07.879Z,3.50
2019-03-19T00:50:36.188Z,3.60
2019-03-19T00:53:04.764Z,3.95
2019-03-19T00:55:40.551Z,3.77
2019-03-19T00:58:02.548Z,3.40
2019-03-19T01:00:32.173Z,3.83
2019-03-19T01:03:00.319Z,3.80
2019-03-19T01:05:29.420Z,3.75
2019-03-19T01:07:58.093Z,3.73
2019-03-19T01:10:26.037Z,3.30
2019-03-19T01:12:53.969Z,2.95
2019-03-19T01:15:22.603Z,3.67
2019-03-19T01:17:50.697Z,3.42
2019-03-19T01:20:19.179Z,3.17
2019-03-19T01:22:46.911Z,3.00
2019-03-19T01:25:15.748Z,3.20
2019-03-19T01:27:44.156Z,3.60
2019-03-19T01:30:12.992Z,3.50
2019-03-19T01:32:40.748Z,3.60
2019-03-19T01:35:08.967Z,3.80
2019-03-19T01:37:37.031Z,3.80
2019-03-19T01:40:06.063Z,3.40
2019-03-19T01:42:33.822Z,3.95
2019-03-19T01:45:01.812Z,3.60
2019-03-19T01:47:29.945Z,3.75
2019-03-19T01:49:58.488Z,3.53
2019-03-19T01:52:27.504Z,2.77
2019-03-19T01:54:57.744Z,2.90
2019-03-19T01:57:28.857Z,3.10
2019-03-19T01:59:59.881Z,2.95
2019-03-19T02:02:28.783Z,3.00
2019-03-19T02:04:57.507Z,2.97
2019-03-19T02:07:26.952Z,3.25
2019-03-19T02:09:56.081Z,3.43
2019-03-19T02:12:24.210Z,3.80
2019-03-19T02:14:52.578Z,4.10
2019-03-19T02:17:20.519Z,3.47
2019-03-19T02:21:14.568Z,2.80
2019-03-19T02:23:41.662Z,3.23
2019-03-19T02:26:16.541Z,3.43
2019-03-19T02:28:58.219Z,3.93
2019-03-19T02:31:26.216Z,4.00
2019-03-19T02:33:53.273Z,3.60
2019-03-19T02:36:21.274Z,3.70
2019-03-19T02:38:49.200Z,3.17
2019-03-19T02:41:17.230Z,3.00
2019-03-19T02:43:44.975Z,3.10
2019-03-19T02:46:12.871Z,3.30
2019-03-19T02:48:41.663Z,2.77
2019-03-19T02:51:09.910Z,2.75
2019-03-19T02:53:38.197Z,2.95
2019-03-19T02:56:07.493Z,2.60
2019-03-19T02:58:35.619Z,2.70
2019-03-19T03:01:03.939Z,3.30
2019-03-19T03:03:32.418Z,3.42
2019-03-19T03:06:04.685Z,3.45
2019-03-19T03:08:34.028Z,3.43
2019-03-19T03:11:02.344Z,3.73
2019-03-19T03:13:30.257Z,3.40
2019-03-19T03:15:58.397Z,3.75
2019-03-19T03:18:26.685Z,3.30
2019-03-19T03:20:54.727Z,3.15
2019-03-19T03:23:23.265Z,2.87
2019-03-19T03:25:51.526Z,2.50
2019-03-19T03:28:21.035Z,2.87
2019-03-19T03:30:49.342Z,2.70
2019-03-19T03:33:17.185Z,2.95
2019-03-19T03:35:45.137Z,2.53
2019-03-19T03:38:13.350Z,2.85
2019-03-19T03:40:41.203Z,2.80
2019-03-19T03:43:08.995Z,2.85
2019-03-19T03:45:37.606Z,3.07
2019-03-19T03:48:05.382Z,2.87
2019-03-19T03:50:33.740Z,2.80
2019-03-19T03:53:01.506Z,3.00
2019-03-19T03:55:31.224Z,2.95
2019-03-19T03:58:00.147Z,2.80
2019-03-19T04:00:28.113Z,2.90
2019-03-19T04:02:58.222Z,2.50
2019-03-19T04:05:27.120Z,2.55
2019-03-19T04:07:55.455Z,2.55
2019-03-19T04:10:23.435Z,2.87
2019-03-19T04:15:25.898Z,2.60
2019-03-19T04:17:53.404Z,2.47
2019-03-19T04:20:21.576Z,3.10
2019-03-19T04:22:49.288Z,3.50
2019-03-19T04:25:16.488Z,3.15
2019-03-19T04:27:43.871Z,3.00
2019-03-19T04:30:11.985Z,3.15
2019-03-19T04:32:39.211Z,3.20
2019-03-19T04:35:06.739Z,3.20
2019-03-19T04:37:34.382Z,3.50
2019-03-19T04:40:02.141Z,3.10
2019-03-19T04:42:29.862Z,2.70
2019-03-19T04:44:57.732Z,2.80
2019-03-19T04:47:25.813Z,2.80
2019-03-19T04:49:53.711Z,2.40
2019-03-19T04:52:21.561Z,2.60
2019-03-19T04:54:50.080Z,2.40
2019-03-19T04:57:26.315Z,2.55
2019-03-19T04:59:48.935Z,2.80
2019-03-19T05:02:17.260Z,2.80
2019-03-19T05:04:44.978Z,3.05
2019-03-19T05:07:13.888Z,3.37
2019-03-19T05:09:42.819Z,3.40
2019-03-19T05:12:13.809Z,3.35
2019-03-19T05:14:42.581Z,3.40
2019-03-19T05:17:11.006Z,3.70
2019-03-19T05:19:39.559Z,3.30
2019-03-19T05:22:07.865Z,3.33
2019-03-19T05:24:37.402Z,3.07
2019-03-19T05:27:05.821Z,2.80
2019-03-19T05:29:34.118Z,2.57
2019-03-19T05:32:02.506Z,3.20
2019-03-19T05:34:30.726Z,2.45
2019-03-19T05:36:59.322Z,2.80
2019-03-19T05:39:27.718Z,2.65
2019-03-19T05:41:56.899Z,2.80
2019-03-19T05:44:25.784Z,3.33
2019-03-19T05:46:54.240Z,3.17
2019-03-19T05:49:22.935Z,3.52
2019-03-19T05:51:51.219Z,3.80
2019-03-19T05:54:19.584Z,3.42
2019-03-19T05:56:47.673Z,3.70
2019-03-19T05:59:15.929Z,3.70
2019-03-19T06:01:50.129Z,3.10
2019-03-19T06:04:17.949Z,2.85
2019-03-19T06:06:47.076Z,2.90
2019-03-19T06:09:20.337Z,2.60
2019-03-19T06:11:48.553Z,2.57
2019-03-19T06:14:17.053Z,2.80
2019-03-19T06:16:45.863Z,2.80
2019-03-19T06:19:14.171Z,2.80
2019-03-19T06:21:42.587Z,3.70
2019-03-19T06:24:11.385Z,3.10
2019-03-19T06:26:40.390Z,3.05
2019-03-19T06:29:08.272Z,3.00
2019-03-19T06:31:36.835Z,3.30
2019-03-19T06:34:06.023Z,2.73
2019-03-19T06:36:38.562Z,3.20
2019-03-19T06:39:11.477Z,3.05
2019-03-19T06:41:42.402Z,2.80
2019-03-19T06:44:10.716Z,3.05
2019-03-19T06:46:39.838Z,3.50
2019-03-19T06:49:09.068Z,2.80
2019-03-19T06:51:39.024Z,2.80
2019-03-19T06:54:07.979Z,2.30
2019-03-19T06:56:37.868Z,2.70
2019-03-19T06:59:05.773Z,2.93
2019-03-19T07:01:34.782Z,3.27
2019-03-19T07:04:02.710Z,3.35
2019-03-19T07:06:30.772Z,3.93
2019-03-19T07:08:59.554Z,3.72
2019-03-19T07:11:28.819Z,3.70
2019-03-19T07:13:56.941Z,4.35
2019-03-19T07:16:26.150Z,3.60
2019-03-19T07:18:54.754Z,3.20
2019-03-19T07:21:23.699Z,2.95
2019-03-19T07:23:52.613Z,2.80
2019-03-19T07:26:20.634Z,2.87
2019-03-19T07:28:50.110Z,2.75
2019-03-19T07:31:18.543Z,3.22
2019-03-19T07:33:48.948Z,3.00
2019-03-19T07:36:17.602Z,2.70
2019-03-19T07:38:46.166Z,3.20
2019-03-19T07:41:14.306Z,3.47
2019-03-19T07:43:43.501Z,2.70
2019-03-19T07:46:11.689Z,3.20
2019-03-19T07:48:41.043Z,4.30
2019-03-19T07:51:09.803Z,3.65
2019-03-19T07:53:39.664Z,4.03
2019-03-19T07:56:09.301Z,3.67
2019-03-19T07:58:45.178Z,5.13
2019-03-19T08:01:11.266Z,4.65
2019-03-19T08:03:39.453Z,5.92
2019-03-19T08:06:07.665Z,7.12
2019-03-19T08:08:36.766Z,7.53
2019-03-19T08:11:07.561Z,6.67
2019-03-19T08:13:36.189Z,7.83
2019-03-19T08:16:06.067Z,8.60
2019-03-19T08:18:36.165Z,8.45
2019-03-19T08:21:04.639Z,8.85
2019-03-19T08:23:34.415Z,8.05
2019-03-19T08:26:02.923Z,9.00
2019-03-19T08:28:33.661Z,8.98
2019-03-19T08:31:02.815Z,8.95
2019-03-19T08:33:32.011Z,10.98
2019-03-19T08:36:08.962Z,11.28
2019-03-19T08:38:30.275Z,10.10
2019-03-19T08:40:58.243Z,10.35
2019-03-19T08:43:26.381Z,10.05
2019-03-19T08:45:54.752Z,9.98
2019-03-19T08:48:23.702Z,11.33
2019-03-19T08:50:51.735Z,10.03
2019-03-19T08:53:20.457Z,10.18
2019-03-19T08:55:48.832Z,10.00
2019-03-19T08:58:16.965Z,10.60
2019-03-19T09:00:44.684Z,10.13
2019-03-19T09:03:12.547Z,10.32
2019-03-19T09:05:40.355Z,9.38
2019-03-19T09:08:08.301Z,9.75
2019-03-19T09:10:37.397Z,9.20
2019-03-19T09:13:05.405Z,9.90
2019-03-19T09:15:34.154Z,10.18
2019-03-19T09:18:02.547Z,9.73
2019-03-19T09:20:31.947Z,9.43
2019-03-19T09:22:59.734Z,8.88
2019-03-19T09:25:27.779Z,9.05
2019-03-19T09:27:55.793Z,9.03
2019-03-19T09:30:23.775Z,9.63
2019-03-19T09:32:53.570Z,8.83
2019-03-19T09:35:20.916Z,7.70
2019-03-19T09:37:57.774Z,8.88
2019-03-19T09:40:18.716Z,9.13
2019-03-19T09:42:47.315Z,9.23
2019-03-19T09:45:15.358Z,7.72
2019-03-19T09:47:44.464Z,8.18
2019-03-19T09:50:14.004Z,8.33
2019-03-19T09:52:43.064Z,7.37
2019-03-19T09:55:11.190Z,7.17
2019-03-19T09:57:39.989Z,6.92
2019-03-19T10:00:12.333Z,8.50
2019-03-19T10:02:41.277Z,7.35
2019-03-19T10:05:08.898Z,7.17
2019-03-19T10:07:36.971Z,7.22
2019-03-19T10:10:07.500Z,7.17
2019-03-19T10:12:37.044Z,7.85
2019-03-19T10:15:06.581Z,6.92
2019-03-19T10:17:35.280Z,7.40
2019-03-19T10:20:05.320Z,7.30
2019-03-19T10:22:33.723Z,7.87
2019-03-19T10:25:01.739Z,6.87
2019-03-19T10:27:29.814Z,7.00
2019-03-19T10:29:58.597Z,6.90
2019-03-19T10:32:26.964Z,7.40
2019-03-19T10:34:55.404Z,8.58
2019-03-19T10:37:23.186Z,8.10
2019-03-19T10:39:51.840Z,7.67
2019-03-19T10:42:20.892Z,7.40
2019-03-19T10:44:49.989Z,5.40
2019-03-19T10:47:17.758Z,4.65
2019-03-19T10:49:46.621Z,4.70
2019-03-19T10:52:14.712Z,4.08
2019-03-19T10:54:43.202Z,3.87
2019-03-19T10:57:11.151Z,3.87
2019-03-19T10:59:48.716Z,3.90
2019-03-19T11:02:09.629Z,3.90
2019-03-19T11:04:37.617Z,3.42
2019-03-19T11:07:05.795Z,4.50
2019-03-19T11:09:33.755Z,5.17
2019-03-19T11:12:02.095Z,6.65
2019-03-19T11:14:30.455Z,7.80
2019-03-19T11:16:59.975Z,9.73
2019-03-19T11:19:28.018Z,11.80
2019-03-19T11:21:56.100Z,11.55
2019-03-19T11:24:23.923Z,11.60
2019-03-19T11:26:53.097Z,12.20
2019-03-19T11:29:22.220Z,12.78
2019-03-19T11:31:51.991Z,12.68
2019-03-19T11:34:20.325Z,12.30
2019-03-19T11:36:57.683Z,11.80
2019-03-19T11:39:23.336Z,13.65
2019-03-19T11:41:51.738Z,13.05
2019-03-19T11:44:19.492Z,13.70
2019-03-19T11:46:49.232Z,13.18
2019-03-19T11:49:17.618Z,13.77
2019-03-19T11:51:47.721Z,13.07
2019-03-19T11:54:16.104Z,13.88
2019-03-19T11:56:45.910Z,14.50
2019-03-19T11:59:14.294Z,13.40
2019-03-19T12:01:42.235Z,13.37
2019-03-19T12:04:10.633Z,14.05
2019-03-19T12:06:39.762Z,14.00
2019-03-19T12:09:08.103Z,13.20
2019-03-19T12:11:37.352Z,12.95
2019-03-19T12:14:05.825Z,12.05
2019-03-19T12:16:33.728Z,11.38
2019-03-19T12:19:02.491Z,11.25
2019-03-19T12:21:30.935Z,11.50
2019-03-19T12:24:00.156Z,11.83
2019-03-19T12:26:30.772Z,11.90
2019-03-19T12:29:00.748Z,11.50
2019-03-19T12:31:31.692Z,11.28
2019-03-19T12:34:01.641Z,10.73
2019-03-19T12:36:32.120Z,10.77
2019-03-19T12:39:01.303Z,10.90
2019-03-19T12:41:29.182Z,10.60
2019-03-19T12:43:58.117Z,10.77
2019-03-19T12:46:26.344Z,9.70
2019-03-19T12:48:54.512Z,9.70
2019-03-19T12:51:24.757Z,9.43
2019-03-19T12:53:53.164Z,9.40
2019-03-19T12:56:22.604Z,8.80
2019-03-19T12:58:52.270Z,8.95
2019-03-19T13:01:21.586Z,8.47
2019-03-19T13:03:51.730Z,8.93
2019-03-19T13:06:21.341Z,7.60
2019-03-19T13:08:49.641Z,8.30
2019-03-19T13:11:18.165Z,8.20
2019-03-19T13:13:46.154Z,8.07
2019-03-19T13:16:16.547Z,8.10
2019-03-19T13:18:45.375Z,8.00
2019-03-19T13:21:13.496Z,7.97
2019-03-19T13:23:42.255Z,7.78
2019-03-19T13:26:10.393Z,7.65
2019-03-19T13:28:40.455Z,6.80
2019-03-19T13:31:08.887Z,7.20
2019-03-19T13:33:37.583Z,6.90
2019-03-19T13:36:05.357Z,5.67
2019-03-19T13:38:33.722Z,6.60
2019-03-19T13:41:01.795Z,6.33
2019-03-19T13:43:30.388Z,5.60
2019-03-19T13:45:58.592Z,6.77
2019-03-19T13:48:27.388Z,6.47
2019-03-19T13:50:58.741Z,5.60
2019-03-19T13:53:27.516Z,5.83
2019-03-19T13:55:57.551Z,5.50
2019-03-19T13:58:27.447Z,5.70
2019-03-19T14:00:58.686Z,5.75
2019-03-19T14:03:27.949Z,5.05
2019-03-19T14:05:57.591Z,5.30
2019-03-19T14:08:28.170Z,5.13
2019-03-19T14:10:57.866Z,5.45
2019-03-19T14:13:28.195Z,4.92
2019-03-19T14:15:56.870Z,5.47
2019-03-19T14:18:26.759Z,5.42
2019-03-19T14:20:54.828Z,4.80
2019-03-19T14:23:24.915Z,5.33
2019-03-19T14:25:53.222Z,4.33
2019-03-19T14:28:22.412Z,5.83
2019-03-19T14:30:51.007Z,4.60
2019-03-19T14:33:18.628Z,3.92
2019-03-19T14:35:46.751Z,3.60
2019-03-19T14:38:14.443Z,3.45
2019-03-19T14:40:42.268Z,3.08
2019-03-19T14:43:09.956Z,3.62
2019-03-19T14:45:38.832Z,3.95
2019-03-19T14:48:07.909Z,3.77
2019-03-19T14:50:36.048Z,3.47
2019-03-19T14:53:04.381Z,3.27
2019-03-19T14:55:32.661Z,3.10
2019-03-19T14:58:00.701Z,4.75
2019-03-19T15:00:28.872Z,4.25
2019-03-19T15:02:56.674Z,4.30
2019-03-19T15:05:26.946Z,4.87
2019-03-19T15:07:57.075Z,4.12
2019-03-19T15:10:25.420Z,4.30
2019-03-19T15:12:53.588Z,4.40
2019-03-19T15:15:23.394Z,5.03
2019-03-19T15:17:55.061Z,4.40
2019-03-19T15:20:24.070Z,3.95
2019-03-19T15:22:52.638Z,3.55
2019-03-19T15:25:21.746Z,3.72
2019-03-19T15:27:49.731Z,3.83
2019-03-19T15:30:18.122Z,4.28
2019-03-19T15:32:46.613Z,4.33
2019-03-19T15:35:15.170Z,4.72
2019-03-19T15:37:43.664Z,4.00
2019-03-19T15:40:12.960Z,4.62
2019-03-19T15:42:42.442Z,4.00
2019-03-19T15:45:12.072Z,4.42
2019-03-19T15:47:43.088Z,5.17
2019-03-19T15:50:13.899Z,3.60
2019-03-19T15:52:42.657Z,3.62
2019-03-19T15:55:11.788Z,4.17
2019-03-19T15:57:39.786Z,4.12
2019-03-19T16:00:11.379Z,3.98
2019-03-19T16:02:41.465Z,4.05
2019-03-19T16:05:10.255Z,3.50
2019-03-19T16:07:38.165Z,3.52
2019-03-19T16:10:07.101Z,3.40
2019-03-19T16:12:35.230Z,3.72
2019-03-19T16:15:04.154Z,3.50
2019-03-19T16:17:36.590Z,3.60
2019-03-19T16:20:09.318Z,2.70
2019-03-19T16:22:39.416Z,3.37
2019-03-19T16:25:09.151Z,3.33
2019-03-19T16:27:39.207Z,3.02
2019-03-19T16:30:09.064Z,3.25
2019-03-19T16:32:38.969Z,2.83
2019-03-19T16:35:07.749Z,2.47
2019-03-19T16:37:37.667Z,2.60
2019-03-19T16:40:08.798Z,2.98
2019-03-19T16:42:37.584Z,2.92
2019-03-19T16:45:07.432Z,2.87
2019-03-19T16:47:36.261Z,3.02
2019-03-19T16:50:05.176Z,3.08
2019-03-19T16:52:33.533Z,4.08
2019-03-19T16:55:01.856Z,2.65
2019-03-19T16:57:30.582Z,2.83
2019-03-19T17:00:00.314Z,3.00
2019-03-19T17:02:28.740Z,3.12
2019-03-19T17:04:58.561Z,2.58
2019-03-19T17:07:28.036Z,2.80
2019-03-19T17:09:56.491Z,2.70
2019-03-19T17:12:25.248Z,2.75
2019-03-19T17:14:53.483Z,3.12
2019-03-19T17:17:22.635Z,2.90
2019-03-19T17:19:50.791Z,3.00
2019-03-19T17:22:19.483Z,3.05
2019-03-19T17:24:48.056Z,2.77
2019-03-19T17:27:16.727Z,2.75
2019-03-19T17:29:46.529Z,2.58
2019-03-19T17:32:15.029Z,2.85
2019-03-19T17:34:43.336Z,2.52
2019-03-19T17:37:11.780Z,2.50
2019-03-19T17:39:41.285Z,2.55
2019-03-19T17:42:11.006Z,2.75
2019-03-19T17:44:39.264Z,2.62
2019-03-19T17:47:07.198Z,2.42
2019-03-19T17:49:35.912Z,2.92
2019-03-19T17:52:04.286Z,2.80
2019-03-19T17:54:33.134Z,2.70
2019-03-19T17:57:02.208Z,3.08
2019-03-19T17:59:31.334Z,2.75
2019-03-19T18:02:01.274Z,2.65
2019-03-19T18:04:29.833Z,2.67
2019-03-19T18:06:58.213Z,2.12
2019-03-19T18:09:27.738Z,2.60
2019-03-19T18:11:55.589Z,3.05
2019-03-19T18:14:24.391Z,2.70
2019-03-19T18:16:52.348Z,3.02
2019-03-19T18:19:21.224Z,2.42
2019-03-19T18:21:49.983Z,3.52
2019-03-19T18:24:18.851Z,2.55
2019-03-19T18:26:47.203Z,3.00
2019-03-19T18:29:15.717Z,3.10
2019-03-19T18:31:44.043Z,2.70
2019-03-19T18:34:12.312Z,3.35
2019-03-19T18:36:40.449Z,2.90
2019-03-19T18:39:09.680Z,2.92
2019-03-19T18:41:39.185Z,2.95
2019-03-19T18:44:08.113Z,3.08
2019-03-19T18:46:36.703Z,2.85
2019-03-19T18:49:05.212Z,2.60
2019-03-19T18:51:33.558Z,3.70
2019-03-19T18:54:01.575Z,3.12
2019-03-19T18:56:31.500Z,2.80
2019-03-19T18:58:59.398Z,3.42
2019-03-19T19:01:28.057Z,2.58
2019-03-19T19:03:57.122Z,2.90
2019-03-19T19:06:25.638Z,2.55
2019-03-19T19:08:53.774Z,3.00
2019-03-19T19:11:21.632Z,2.80
2019-03-19T19:13:49.538Z,2.50
2019-03-19T19:16:18.820Z,3.05
2019-03-19T19:18:46.915Z,2.75
2019-03-19T19:21:15.461Z,3.08
2019-03-19T19:23:44.178Z,3.08
2019-03-19T19:26:12.616Z,3.72
2019-03-19T19:28:42.866Z,3.22
2019-03-19T19:31:13.300Z,2.92
2019-03-19T19:33:43.176Z,2.95
2019-03-19T19:36:13.188Z,2.40
2019-03-19T19:38:43.976Z,2.70
2019-03-19T19:41:15.240Z,2.58
2019-03-19T19:43:44.811Z,3.33
2019-03-19T19:46:13.361Z,3.60
2019-03-19T19:48:43.265Z,4.17
2019-03-19T19:51:13.447Z,3.98
2019-03-19T19:53:43.462Z,4.22
2019-03-19T19:56:14.529Z,3.98
2019-03-19T19:58:44.443Z,4.28
2019-03-19T20:01:14.550Z,4.58
2019-03-19T20:03:46.611Z,4.40
2019-03-19T20:06:14.713Z,3.92
2019-03-19T20:08:44.201Z,3.58
2019-03-19T20:11:12.023Z,3.37
2019-03-19T20:13:43.907Z,4.00
2019-03-19T20:16:12.068Z,3.30
2019-03-19T20:18:40.444Z,3.62
2019-03-19T20:21:09.564Z,3.62
2019-03-19T20:23:38.695Z,3.67
2019-03-19T20:26:06.416Z,3.47
2019-03-19T20:28:36.612Z,4.08
2019-03-19T20:31:06.888Z,4.20
2019-03-19T20:33:37.541Z,4.08
2019-03-19T20:36:07.376Z,4.05
2019-03-19T20:38:38.253Z,4.42
2019-03-19T20:41:07.814Z,4.45
2019-03-19T20:43:39.094Z,4.53
2019-03-19T20:46:07.598Z,4.30
2019-03-19T20:48:36.823Z,4.30
2019-03-19T20:51:06.606Z,3.50
2019-03-19T20:53:37.099Z,4.20
2019-03-19T20:56:07.079Z,3.62
2019-03-19T20:58:43.573Z,3.80
2019-03-19T21:01:11.538Z,3.80
2019-03-19T21:03:41.570Z,4.83
2019-03-19T21:06:11.454Z,4.53
2019-03-19T21:08:41.717Z,5.55
2019-03-19T21:11:09.664Z,5.00
2019-03-19T21:13:39.659Z,5.17
2019-03-19T21:16:09.212Z,5.62
2019-03-19T21:18:37.909Z,5.70
2019-03-19T21:21:06.156Z,5.58
2019-03-19T21:23:34.065Z,5.17
2019-03-19T21:26:02.302Z,4.58
2019-03-19T21:28:30.699Z,5.12
2019-03-19T21:30:58.661Z,5.40
2019-03-19T21:33:27.436Z,4.50
2019-03-19T21:35:55.742Z,4.67
2019-03-19T21:38:23.594Z,4.67
2019-03-19T21:40:51.666Z,4.58
2019-03-19T21:43:19.528Z,5.97
2019-03-19T21:45:47.907Z,4.70
2019-03-19T21:48:15.619Z,5.78
2019-03-19T21:50:45.417Z,4.97
2019-03-19T21:53:13.742Z,5.15
2019-03-19T21:55:44.029Z,5.28
2019-03-19T21:58:12.032Z,5.10
2019-03-19T22:00:41.018Z,4.87
2019-03-19T22:03:09.635Z,4.92
2019-03-19T22:05:38.492Z,4.85
2019-03-19T22:08:07.248Z,4.62
2019-03-19T22:10:35.256Z,4.90
2019-03-19T22:13:03.515Z,4.20
2019-03-19T22:15:31.874Z,4.25
2019-03-19T22:18:01.032Z,4.60
2019-03-19T22:20:29.505Z,4.87
2019-03-19T22:22:59.441Z,5.00
2019-03-19T22:25:27.683Z,5.15
2019-03-19T22:27:56.152Z,4.10
2019-03-19T22:30:24.982Z,4.97
2019-03-19T22:32:54.084Z,4.62
2019-03-19T22:35:23.529Z,4.60
2019-03-19T22:37:51.855Z,4.33
2019-03-19T22:40:20.557Z,4.33
2019-03-19T22:42:49.234Z,4.30
2019-03-19T22:45:17.755Z,4.03
2019-03-19T22:47:46.399Z,4.00
2019-03-19T22:50:16.014Z,4.15
2019-03-19T22:52:44.751Z,3.92
2019-03-19T22:55:14.932Z,4.08
2019-03-19T22:57:43.427Z,3.83
2019-03-19T23:00:18.104Z,3.70
2019-03-19T23:02:46.175Z,3.72
2019-03-19T23:05:14.900Z,3.47
2019-03-19T23:07:42.765Z,4.20
2019-03-19T23:10:10.576Z,4.55
2019-03-19T23:12:38.505Z,4.70
2019-03-19T23:15:08.377Z,4.87
2019-03-19T23:17:36.884Z,4.22
2019-03-19T23:20:06.240Z,4.12
2019-03-19T23:22:34.954Z,3.47
2019-03-19T23:25:03.619Z,3.60
2019-03-19T23:27:31.391Z,3.72
2019-03-19T23:29:59.549Z,4.08
2019-03-19T23:32:27.561Z,4.12
2019-03-19T23:34:55.176Z,3.77
2019-03-19T23:37:23.955Z,4.10
2019-03-19T23:39:53.595Z,3.70
2019-03-19T23:42:22.454Z,3.92
2019-03-19T23:44:50.827Z,4.75
2019-03-19T23:47:19.698Z,4.65
2019-03-19T23:49:47.380Z,4.25
2019-03-19T23:52:16.430Z,4.50
2019-03-19T23:54:44.953Z,4.22
2019-03-19T23:57:13.204Z,4.60
2019-03-19T23:59:41.531Z,3.87
